Time,TemperatureF,DewpointF,PressureIn,WindDirection,WindDirectionDegrees,WindSpeedMPH,WindSpeedGustMPH,Humidity,HourlyPrecipIn,Conditions,Clouds,dailyrainin,SoftwareType,DateUTC
2013-02-25 00:01:00,66.0,65.0,29.94,East,90,0.0,0.0,97,0.00,,,0.00,,2013-02-25 05:01:00,
2013-02-25 00:11:00,66.0,65.0,29.94,East,90,0.0,0.0,97,0.00,,,0.00,,2013-02-25 05:11:00,
2013-02-25 00:22:00,67.0,66.0,29.93,East,90,0.0,0.0,97,0.00,,,0.00,,2013-02-25 05:22:00,
2013-02-25 00:32:00,66.0,65.0,29.94,East,90,0.0,0.0,97,0.00,,,0.00,,2013-02-25 05:32:00,
2013-02-25 00:42:00,66.0,65.0,29.94,East,90,0.0,0.0,97,0.00,,,0.00,,2013-02-25 05:42:00,
2013-02-25 00:52:00,67.0,66.0,29.94,East,90,0.0,0.0,97,0.00,,,0.00,,2013-02-25 05:52:00,
2013-02-25 01:02:00,67.0,66.0,29.93,WSW,239,0.0,1.0,98,0.00,,,0.00,,2013-02-25 06:02:00,
2013-02-25 01:11:00,67.0,66.0,29.93,WSW,239,0.0,1.0,98,0.00,,,0.00,,2013-02-25 06:11:00,
2013-02-25 01:21:00,67.0,66.0,29.92,WSW,257,0.0,1.0,98,0.00,,,0.00,,2013-02-25 06:21:00,
2013-02-25 01:32:00,67.0,66.0,29.93,East,90,0.0,0.0,98,0.00,,,0.00,,2013-02-25 06:32:00,
2013-02-25 01:42:00,67.0,66.0,29.93,East,90,0.0,0.0,98,0.00,,,0.00,,2013-02-25 06:42:00,
2013-02-25 01:52:00,67.0,66.0,29.91,East,90,0.0,0.0,98,0.00,,,0.00,,2013-02-25 06:52:00,
2013-02-25 02:01:00,67.0,66.0,29.92,East,90,0.0,0.0,98,0.00,,,0.00,,2013-02-25 07:01:00,
2013-02-25 02:11:00,67.0,66.0,29.91,East,90,0.0,0.0,98,0.00,,,0.00,,2013-02-25 07:11:00,
2013-02-25 02:21:00,67.0,66.0,29.91,East,90,0.0,0.0,98,0.00,,,0.00,,2013-02-25 07:21:00,
2013-02-25 02:32:00,67.0,66.0,29.91,East,90,0.0,0.0,98,0.00,,,0.00,,2013-02-25 07:32:00,
2013-02-25 02:42:00,67.0,66.0,29.91,East,90,0.0,0.0,98,0.00,,,0.00,,2013-02-25 07:42:00,
2013-02-25 02:52:00,67.0,66.0,29.89,East,90,0.0,0.0,98,0.00,,,0.00,,2013-02-25 07:52:00,
2013-02-25 03:01:00,67.0,66.0,29.90,East,90,0.0,0.0,98,0.00,,,0.00,,2013-02-25 08:01:00,
2013-02-25 03:11:00,67.0,66.0,29.88,East,90,0.0,0.0,98,0.00,,,0.00,,2013-02-25 08:11:00,
2013-02-25 03:21:00,67.0,66.0,29.88,East,90,0.0,0.0,98,0.00,,,0.00,,2013-02-25 08:21:00,
2013-02-25 03:32:00,67.0,66.0,29.88,East,90,0.0,0.0,98,0.00,,,0.00,,2013-02-25 08:32:00,
2013-02-25 03:42:00,67.0,66.0,29.88,East,90,0.0,0.0,98,0.00,,,0.00,,2013-02-25 08:42:00,
2013-02-25 03:52:00,67.0,66.0,29.90,East,90,0.0,0.0,98,0.00,,,0.00,,2013-02-25 08:52:00,
2013-02-25 04:01:00,67.0,66.0,29.87,East,90,0.0,0.0,98,0.00,,,0.00,,2013-02-25 09:01:00,
2013-02-25 04:12:00,67.0,66.0,29.87,East,90,0.0,0.0,98,0.00,,,0.00,,2013-02-25 09:12:00,
2013-02-25 04:21:00,66.0,65.0,29.88,East,90,0.0,0.0,98,0.00,,,0.00,,2013-02-25 09:21:00,
2013-02-25 04:32:00,66.0,65.0,29.87,East,90,0.0,0.0,98,0.00,,,0.00,,2013-02-25 09:32:00,
2013-02-25 04:42:00,66.0,65.0,29.87,East,90,0.0,0.0,98,0.00,,,0.00,,2013-02-25 09:42:00,
2013-02-25 04:52:00,66.0,65.0,29.87,East,90,0.0,0.0,98,0.00,,,0.00,,2013-02-25 09:52:00,
2013-02-25 05:01:00,66.0,65.0,29.87,East,90,0.0,0.0,98,0.00,,,0.00,,2013-02-25 10:01:00,
2013-02-25 05:11:00,66.0,65.0,29.87,East,90,0.0,0.0,98,0.00,,,0.00,,2013-02-25 10:11:00,
2013-02-25 05:21:00,66.0,65.0,29.87,East,90,0.0,0.0,98,0.00,,,0.00,,2013-02-25 10:21:00,
2013-02-25 05:32:00,66.0,65.0,29.87,East,90,0.0,0.0,98,0.00,,,0.00,,2013-02-25 10:32:00,
2013-02-25 05:42:00,66.0,65.0,29.87,East,90,0.0,0.0,98,0.00,,,0.00,,2013-02-25 10:42:00,
2013-02-25 05:52:00,66.0,66.0,29.87,East,90,0.0,0.0,99,0.00,,,0.00,,2013-02-25 10:52:00,
2013-02-25 06:01:00,66.0,66.0,29.88,East,90,0.0,0.0,99,0.00,,,0.00,,2013-02-25 11:01:00,
2013-02-25 06:11:00,66.0,66.0,29.88,East,90,0.0,0.0,99,0.00,,,0.00,,2013-02-25 11:11:00,
2013-02-25 06:22:00,66.0,66.0,29.88,East,90,0.0,0.0,99,0.00,,,0.00,,2013-02-25 11:22:00,
2013-02-25 06:32:00,66.0,66.0,29.87,East,90,0.0,0.0,99,0.00,,,0.00,,2013-02-25 11:32:00,
2013-02-25 06:42:00,66.0,66.0,29.87,East,90,0.0,0.0,99,0.00,,,0.00,,2013-02-25 11:42:00,
2013-02-25 06:52:00,66.0,66.0,29.87,East,90,0.0,0.0,99,0.00,,,0.00,,2013-02-25 11:52:00,
2013-02-25 07:02:00,66.0,66.0,29.87,East,90,0.0,0.0,99,0.00,,,0.00,,2013-02-25 12:02:00,
2013-02-25 07:11:00,66.0,66.0,29.87,East,90,0.0,0.0,99,0.00,,,0.00,,2013-02-25 12:11:00,
2013-02-25 07:22:00,66.0,66.0,29.87,East,90,0.0,0.0,99,0.00,,,0.00,,2013-02-25 12:22:00,
2013-02-25 07:32:00,67.0,67.0,29.88,East,90,0.0,0.0,99,0.00,,,0.00,,2013-02-25 12:32:00,
2013-02-25 07:42:00,67.0,67.0,29.88,East,90,0.0,0.0,99,0.00,,,0.00,,2013-02-25 12:42:00,
2013-02-25 07:56:00,67.0,67.0,29.88,East,90,0.0,0.0,99,0.00,,,0.00,,2013-02-25 12:56:00,
2013-02-25 08:02:00,67.0,67.0,29.90,East,90,0.0,0.0,99,0.00,,,0.00,,2013-02-25 13:02:00,
2013-02-25 08:12:00,67.0,67.0,29.90,East,90,0.0,0.0,99,0.00,,,0.00,,2013-02-25 13:12:00,
2013-02-25 08:22:00,68.0,68.0,29.90,East,90,0.0,0.0,99,0.00,,,0.00,,2013-02-25 13:22:00,
2013-02-25 08:32:00,69.0,69.0,29.89,East,90,0.0,0.0,100,0.00,,,0.00,,2013-02-25 13:32:00,
2013-02-25 08:42:00,69.0,69.0,29.89,East,90,0.0,0.0,100,0.00,,,0.00,,2013-02-25 13:42:00,
2013-02-25 08:52:00,71.0,71.0,29.89,East,90,0.0,0.0,100,0.00,,,0.00,,2013-02-25 13:52:00,
2013-02-25 09:03:00,72.0,72.0,29.90,SSE,166,0.0,1.0,99,0.00,,,0.00,,2013-02-25 14:03:00,
2013-02-25 09:17:00,72.0,72.0,29.90,SSE,166,0.0,1.0,99,0.00,,,0.00,,2013-02-25 14:17:00,
2013-02-25 09:32:00,75.0,73.0,29.91,SW,232,0.0,7.0,95,0.00,,,0.00,,2013-02-25 14:32:00,
2013-02-25 09:42:00,75.0,73.0,29.91,SW,232,0.0,7.0,95,0.00,,,0.00,,2013-02-25 14:42:00,
2013-02-25 09:52:00,77.0,74.0,29.90,SE,136,0.0,2.0,89,0.00,,,0.00,,2013-02-25 14:52:00,
2013-02-25 10:02:00,79.0,73.0,29.90,WSW,243,1.0,4.0,83,0.00,,,0.00,,2013-02-25 15:02:00,
2013-02-25 10:11:00,79.0,73.0,29.90,WSW,243,1.0,4.0,83,0.00,,,0.00,,2013-02-25 15:11:00,
2013-02-25 10:22:00,79.0,72.0,29.90,West,273,0.0,6.0,80,0.00,,,0.00,,2013-02-25 15:22:00,
2013-02-25 10:32:00,80.0,71.0,29.90,SSE,160,1.0,7.0,74,0.00,,,0.00,,2013-02-25 15:32:00,
2013-02-25 10:42:00,80.0,71.0,29.90,SSE,160,1.0,7.0,74,0.00,,,0.00,,2013-02-25 15:42:00,
2013-02-25 10:52:00,81.0,70.0,29.90,SW,229,1.0,5.0,69,0.00,,,0.00,,2013-02-25 15:52:00,
2013-02-25 11:02:00,82.0,69.0,29.89,WSW,237,1.0,5.0,66,0.00,,,0.00,,2013-02-25 16:02:00,
2013-02-25 11:12:00,82.0,69.0,29.89,WSW,237,1.0,5.0,66,0.00,,,0.00,,2013-02-25 16:12:00,
2013-02-25 11:22:00,82.0,68.0,29.90,SSW,200,1.0,5.0,63,0.00,,,0.00,,2013-02-25 16:22:00,
2013-02-25 11:32:00,83.0,69.0,29.89,SSE,162,2.0,6.0,63,0.00,,,0.00,,2013-02-25 16:32:00,
2013-02-25 11:42:00,83.0,69.0,29.89,SSE,162,2.0,6.0,63,0.00,,,0.00,,2013-02-25 16:42:00,
2013-02-25 11:52:00,83.0,69.0,29.89,West,280,1.0,5.0,63,0.00,,,0.00,,2013-02-25 16:52:00,
2013-02-25 12:01:00,84.0,70.0,29.89,SW,217,1.0,5.0,62,0.00,,,0.00,,2013-02-25 17:01:00,
2013-02-25 12:11:00,84.0,70.0,29.89,SW,217,1.0,5.0,62,0.00,,,0.00,,2013-02-25 17:11:00,
2013-02-25 12:21:00,84.0,68.0,29.88,West,260,1.0,6.0,58,0.00,,,0.00,,2013-02-25 17:21:00,
2013-02-25 12:32:00,85.0,68.0,29.87,West,274,2.0,7.0,57,0.00,,,0.00,,2013-02-25 17:32:00,
2013-02-25 12:42:00,85.0,68.0,29.87,West,274,2.0,7.0,57,0.00,,,0.00,,2013-02-25 17:42:00,
2013-02-25 12:52:00,84.0,68.0,29.87,South,172,2.0,6.0,58,0.00,,,0.00,,2013-02-25 17:52:00,
2013-02-25 13:01:00,83.0,67.0,29.86,SSE,165,0.0,3.0,59,0.00,,,0.00,,2013-02-25 18:01:00,
2013-02-25 13:12:00,83.0,67.0,29.86,SSE,165,0.0,3.0,59,0.00,,,0.00,,2013-02-25 18:12:00,
2013-02-25 13:21:00,83.0,68.0,29.86,South,185,0.0,7.0,61,0.00,,,0.00,,2013-02-25 18:21:00,
2013-02-25 13:32:00,83.0,69.0,29.85,West,267,0.0,4.0,62,0.00,,,0.00,,2013-02-25 18:32:00,
2013-02-25 13:42:00,83.0,69.0,29.85,West,267,0.0,4.0,62,0.00,,,0.00,,2013-02-25 18:42:00,
2013-02-25 13:52:00,83.0,68.0,29.84,SSE,168,2.0,7.0,61,0.00,,,0.00,,2013-02-25 18:52:00,
2013-02-25 14:01:00,83.0,67.0,29.83,South,179,1.0,7.0,59,0.00,,,0.00,,2013-02-25 19:01:00,
2013-02-25 14:11:00,83.0,67.0,29.83,South,179,1.0,7.0,59,0.00,,,0.00,,2013-02-25 19:11:00,
2013-02-25 14:21:00,83.0,67.0,29.83,SSE,164,1.0,7.0,59,0.00,,,0.00,,2013-02-25 19:21:00,
2013-02-25 14:32:00,85.0,68.0,29.83,SSE,159,2.0,5.0,56,0.00,,,0.00,,2013-02-25 19:32:00,
2013-02-25 14:42:00,85.0,68.0,29.83,SSE,159,2.0,5.0,56,0.00,,,0.00,,2013-02-25 19:42:00,
2013-02-25 14:52:00,85.0,68.0,29.83,South,187,2.0,8.0,56,0.00,,,0.00,,2013-02-25 19:52:00,
2013-02-25 15:01:00,87.0,68.0,29.82,SE,133,2.0,6.0,53,0.00,,,0.00,,2013-02-25 20:01:00,
2013-02-25 15:11:00,87.0,68.0,29.82,SE,133,2.0,6.0,53,0.00,,,0.00,,2013-02-25 20:11:00,
2013-02-25 15:21:00,87.0,67.0,29.82,South,190,1.0,6.0,51,0.00,,,0.00,,2013-02-25 20:21:00,
2013-02-25 15:32:00,88.0,67.0,29.82,SSW,196,1.0,4.0,50,0.00,,,0.00,,2013-02-25 20:32:00,
2013-02-25 15:42:00,88.0,67.0,29.82,SSW,196,1.0,4.0,50,0.00,,,0.00,,2013-02-25 20:42:00,
2013-02-25 15:52:00,87.0,66.0,29.82,West,260,1.0,5.0,50,0.00,,,0.00,,2013-02-25 20:52:00,
2013-02-25 16:02:00,85.0,65.0,29.81,SE,142,1.0,4.0,51,0.00,,,0.00,,2013-02-25 21:02:00,
2013-02-25 16:11:00,85.0,65.0,29.81,SE,142,1.0,4.0,51,0.00,,,0.00,,2013-02-25 21:11:00,
2013-02-25 16:21:00,83.0,66.0,29.81,East,90,0.0,0.0,57,0.00,,,0.00,,2013-02-25 21:21:00,
2013-02-25 16:32:00,83.0,66.0,29.80,ESE,103,0.0,2.0,57,0.00,,,0.00,,2013-02-25 21:32:00,
2013-02-25 16:42:00,83.0,66.0,29.80,ESE,103,0.0,2.0,57,0.00,,,0.00,,2013-02-25 21:42:00,
2013-02-25 16:52:00,83.0,67.0,29.80,SE,143,0.0,1.0,58,0.00,,,0.00,,2013-02-25 21:52:00,
2013-02-25 17:01:00,83.0,66.0,29.80,SW,225,0.0,6.0,57,0.00,,,0.00,,2013-02-25 22:01:00,
2013-02-25 17:11:00,83.0,66.0,29.80,SW,225,0.0,6.0,57,0.00,,,0.00,,2013-02-25 22:11:00,
2013-02-25 17:21:00,82.0,68.0,29.80,SW,230,0.0,1.0,63,0.00,,,0.00,,2013-02-25 22:21:00,
2013-02-25 17:32:00,81.0,70.0,29.81,WNW,287,1.0,4.0,69,0.00,,,0.00,,2013-02-25 22:32:00,
2013-02-25 17:42:00,81.0,70.0,29.81,WNW,287,1.0,4.0,69,0.00,,,0.00,,2013-02-25 22:42:00,
2013-02-25 17:52:00,80.0,69.0,29.80,West,272,0.0,1.0,69,0.00,,,0.00,,2013-02-25 22:52:00,
2013-02-25 18:01:00,79.0,70.0,29.81,East,90,0.0,0.0,73,0.00,,,0.00,,2013-02-25 23:01:00,
2013-02-25 18:11:00,79.0,70.0,29.81,East,90,0.0,0.0,73,0.00,,,0.00,,2013-02-25 23:11:00,
2013-02-25 18:22:00,78.0,69.0,29.80,East,90,0.0,0.0,74,0.00,,,0.00,,2013-02-25 23:22:00,
2013-02-25 18:32:00,76.0,68.0,29.81,East,90,0.0,0.0,77,0.00,,,0.00,,2013-02-25 23:32:00,
2013-02-25 18:42:00,76.0,68.0,29.81,East,90,0.0,0.0,77,0.00,,,0.00,,2013-02-25 23:42:00,
2013-02-25 18:52:00,75.0,68.0,29.82,East,90,0.0,0.0,80,0.00,,,0.00,,2013-02-25 23:52:00,
2013-02-25 19:01:00,74.0,68.0,29.81,East,90,0.0,0.0,83,0.00,,,0.00,,2013-02-26 00:01:00,
2013-02-25 19:12:00,74.0,68.0,29.81,East,90,0.0,0.0,83,0.00,,,0.00,,2013-02-26 00:12:00,
2013-02-25 19:22:00,74.0,68.0,29.82,East,90,0.0,0.0,81,0.00,,,0.00,,2013-02-26 00:22:00,
2013-02-25 19:32:00,74.0,68.0,29.82,East,90,0.0,0.0,82,0.00,,,0.00,,2013-02-26 00:32:00,
2013-02-25 19:42:00,74.0,68.0,29.82,East,90,0.0,0.0,82,0.00,,,0.00,,2013-02-26 00:42:00,
2013-02-25 19:52:00,74.0,68.0,29.83,East,90,0.0,0.0,83,0.00,,,0.00,,2013-02-26 00:52:00,
2013-02-25 20:02:00,73.0,68.0,29.83,East,90,0.0,0.0,85,0.00,,,0.00,,2013-02-26 01:02:00,
2013-02-25 20:11:00,73.0,68.0,29.83,East,90,0.0,0.0,85,0.00,,,0.00,,2013-02-26 01:11:00,
2013-02-25 20:21:00,72.0,68.0,29.83,East,90,0.0,0.0,87,0.00,,,0.00,,2013-02-26 01:21:00,
2013-02-25 20:32:00,72.0,69.0,29.83,East,90,0.0,0.0,89,0.00,,,0.00,,2013-02-26 01:32:00,
2013-02-25 20:42:00,72.0,69.0,29.83,East,90,0.0,0.0,89,0.00,,,0.00,,2013-02-26 01:42:00,
2013-02-25 20:52:00,72.0,69.0,29.84,South,172,0.0,1.0,89,0.00,,,0.00,,2013-02-26 01:52:00,
2013-02-25 21:01:00,72.0,69.0,29.84,SSW,207,0.0,2.0,89,0.00,,,0.00,,2013-02-26 02:01:00,
2013-02-25 21:11:00,72.0,69.0,29.84,SSW,207,0.0,2.0,89,0.00,,,0.00,,2013-02-26 02:11:00,
2013-02-25 21:21:00,72.0,69.0,29.84,SW,232,0.0,1.0,89,0.00,,,0.00,,2013-02-26 02:21:00,
2013-02-25 21:32:00,72.0,69.0,29.84,ESE,113,0.0,1.0,90,0.00,,,0.00,,2013-02-26 02:32:00,
2013-02-25 21:42:00,72.0,69.0,29.84,ESE,113,0.0,1.0,90,0.00,,,0.00,,2013-02-26 02:42:00,
2013-02-25 21:52:00,71.0,68.0,29.84,East,90,0.0,0.0,91,0.00,,,0.00,,2013-02-26 02:52:00,
2013-02-25 22:02:00,71.0,69.0,29.84,ESE,115,0.0,2.0,92,0.00,,,0.00,,2013-02-26 03:02:00,
2013-02-25 22:11:00,71.0,69.0,29.84,ESE,115,0.0,2.0,92,0.00,,,0.00,,2013-02-26 03:11:00,
2013-02-25 22:22:00,72.0,70.0,29.84,South,190,0.0,2.0,92,0.00,,,0.00,,2013-02-26 03:22:00,
2013-02-25 22:32:00,72.0,70.0,29.84,SSE,166,0.0,2.0,92,0.00,,,0.00,,2013-02-26 03:32:00,
2013-02-25 22:42:00,72.0,70.0,29.84,SSE,166,0.0,2.0,92,0.00,,,0.00,,2013-02-26 03:42:00,
2013-02-25 22:52:00,72.0,70.0,29.83,South,169,0.0,4.0,93,0.00,,,0.00,,2013-02-26 03:52:00,
2013-02-25 23:01:00,71.0,69.0,29.83,SSE,152,0.0,2.0,93,0.00,,,0.00,,2013-02-26 04:01:00,
2013-02-25 23:11:00,71.0,69.0,29.83,SSE,152,0.0,2.0,93,0.00,,,0.00,,2013-02-26 04:11:00,
2013-02-25 23:22:00,71.0,69.0,29.83,South,174,0.0,5.0,93,0.00,,,0.00,,2013-02-26 04:22:00,
2013-02-25 23:32:00,71.0,69.0,29.82,SSE,151,0.0,4.0,92,0.00,,,0.00,,2013-02-26 04:32:00,
2013-02-25 23:42:00,71.0,69.0,29.82,SSE,151,0.0,4.0,92,0.00,,,0.00,,2013-02-26 04:42:00,
2013-02-25 23:52:00,72.0,70.0,29.83,South,183,0.0,6.0,92,0.00,,,0.00,,2013-02-26 04:52:00,